Terminal Aerodrome Forecast
Issued by NWS Cleveland, OH

Home | Current Version | Previous Version | Text Only | Print | Product List | Glossary Off
Versions: 1 2 3 4 5 6 7 8 9 10 11 12 13 14 15 16 17 18 19 20 21 22 23 24

000
FTUS41 KCLE 170500
TAFCLE
TAF
KCLE 170524Z 1706/1812 18002KT P6SM SKC
      TEMPO 1709/1713 5SM BR
     FM171600 24007KT P6SM SCT250
     FM171900 31007KT P6SM SCT250
     FM180100 24003KT P6SM SKC=

USA.gov is the U.S. government's official web portal to all federal, state and local government web resources and services.